Latest Weather Observations for PORTABLE RFSNSW52

IDN60801

Issued at 1:32 pm EST Saturday 25 May 2019 (issued every 10 minutes, with the page automatically refreshed every 10 minutes)

About weather observations | Map of weather stations | Latest weather observations for NSW | Other Formats
Station Details ID: 250095 Name: PORTABLE RFSNSW52 Lat: -35.26 Lon: 146.38 Height: 147.0 m
Data from the previous 72 hours. | See also: Recent months for locations in New South Wales
Date/Time
EST
Temp
°C
App
Temp
°C
Dew
Point
°C
Rel
Hum
%
Delta-T
°C
Wind Press
QNH
hPa
Press
MSL
hPa
Rain since
9am
mm
Dir  Spd
km/h
Gust
km/h
Spd
kts
Gust
kts
23/11:30am 18.1 16.1 8.8 54 4.9 ENE 9 11 5 6 - - 0.0
23/11:20am 17.7 15.7 8.5 55 4.8 ENE 9 11 5 6 - - 0.0
23/11:10am 17.3 15.4 8.9 57 4.4 ENE 9 9 5 5 - - 0.0
23/11:00am 17.0 15.4 8.7 58 4.3 ENE 7 9 4 5 - - 0.0
23/10:50am 16.6 15.0 8.8 60 4.0 ENE 7 11 4 6 - - 0.0
23/10:40am 16.1 14.1 8.5 60 3.9 ENE 9 11 5 6 - - 0.0
23/10:30am 15.8 14.2 8.6 62 3.7 ENE 7 9 4 5 - - 0.0
23/10:20am 15.1 13.1 8.7 65 3.3 ENE 9 11 5 6 - - 0.0
23/10:10am 14.4 12.1 8.9 69 2.8 E 11 11 6 6 - - 0.0
23/10:00am 13.7 11.3 8.5 71 2.6 E 11 13 6 7 - - 0.0
23/09:50am 13.4 11.3 8.4 72 2.5 E 9 11 5 6 - - 0.0
23/09:20am 11.3 9.2 8.1 81 1.6 E 9 11 5 6 - - 0.0
23/09:10am 10.4 8.6 7.9 84 1.2 E 7 9 4 5 - - 0.0
23/09:00am 9.7 8.0 7.7 87 1.0 E 6 9 3 5 - - 0.0
23/08:40am 7.8 5.4 7.0 95 0.4 E 9 11 5 6 - - 0.0
23/08:20am 6.6 4.0 6.1 97 0.2 E 9 11 5 6 - - 0.0
23/08:10am 5.7 3.3 5.1 96 0.3 E 7 9 4 5 - - 0.0
23/07:50am 4.7 1.3 4.2 97 0.2 E 11 13 6 7 - - 0.0
23/07:40am 4.9 2.0 4.5 97 0.2 E 9 13 5 7 - - 0.0
23/07:30am 5.2 1.9 4.8 97 0.2 E 11 11 6 6 - - 0.0
23/07:20am 5.3 2.8 4.9 97 0.2 E 7 9 4 5 - - 0.0
23/07:10am 5.2 2.7 4.8 97 0.2 E 7 9 4 5 - - 0.0
23/07:00am 5.2 2.9 4.7 97 0.2 E 6 7 3 4 - - 0.0
23/06:50am 5.5 3.3 5.1 97 0.2 E 6 7 3 4 - - 0.0
23/06:40am 5.3 2.8 4.9 97 0.2 E 7 9 4 5 - - 0.0
23/06:30am 5.3 3.0 4.9 97 0.2 ESE 6 6 3 3 - - 0.0
23/06:20am 5.1 2.8 4.7 97 0.2 ESE 6 7 3 4 - - 0.0
23/06:10am 5.4 3.1 4.9 97 0.2 ESE 6 7 3 4 - - 0.0
23/06:00am 5.3 3.0 4.8 97 0.2 ESE 6 7 3 4 - - 0.0
23/05:50am 5.0 2.5 4.5 97 0.2 ESE 7 7 4 4 - - 0.0
23/05:40am 5.0 2.4 4.2 95 0.3 ESE 7 9 4 5 - - 0.0
23/05:30am 5.7 2.8 4.8 94 0.4 ESE 9 9 5 5 - - 0.0
23/05:20am 6.9 3.9 6.1 95 0.4 E 11 11 6 6 - - 0.0
23/05:10am 7.4 4.9 6.5 94 0.4 E 9 11 5 6 - - 0.0
23/05:00am 8.0 6.2 7.1 94 0.4 E 6 7 3 4 - - 0.0
23/04:50am 7.8 6.0 7.0 95 0.4 E 6 6 3 3 - - 0.0
23/04:40am 8.0 6.6 7.2 95 0.4 ENE 4 6 2 3 - - 0.0
23/04:30am 7.8 6.0 7.1 95 0.3 E 6 6 3 3 - - 0.0
23/04:20am 7.6 6.1 6.9 95 0.3 E 4 6 2 3 - - 0.0
23/04:10am 7.4 5.9 6.6 95 0.4 ENE 4 6 2 3 - - 0.0
23/04:00am 7.5 5.4 6.8 95 0.3 E 7 9 4 5 - - 0.0
23/03:50am 7.1 4.5 6.3 95 0.4 E 9 9 5 5 - - 0.0
23/03:40am 7.2 4.3 6.3 94 0.4 E 11 13 6 7 - - 0.0
23/03:30am 7.3 4.4 6.4 94 0.4 E 11 13 6 7 - - 0.0
23/03:20am 7.4 4.5 6.4 93 0.5 ESE 11 11 6 6 - - 0.0
23/03:10am 7.7 4.8 6.6 93 0.5 ESE 11 11 6 6 - - 0.0
23/03:00am 7.6 5.1 6.4 92 0.6 ESE 9 9 5 5 - - 0.0
23/02:50am 7.8 5.3 6.6 92 0.6 ESE 9 11 5 6 - - 0.0
23/02:40am 8.2 5.3 6.7 90 0.7 E 11 13 6 7 - - 0.0
23/02:30am 8.6 5.8 7.0 90 0.8 E 11 11 6 6 - - 0.0
23/02:20am 8.5 6.5 7.0 90 0.7 E 7 9 4 5 - - 0.0
23/02:10am 8.1 6.1 7.0 93 0.5 E 7 7 4 4 - - 0.0
23/02:00am 7.8 5.3 6.5 91 0.6 ESE 9 11 5 6 - - 0.0
23/01:50am 8.1 5.2 6.6 90 0.7 E 11 11 6 6 - - 0.0
23/01:40am 8.5 6.1 6.8 89 0.8 E 9 11 5 6 - - 0.0
23/01:30am 8.5 6.1 6.8 89 0.8 E 9 9 5 5 - - 0.0
23/01:20am 8.1 6.0 6.6 90 0.7 ESE 7 9 4 5 - - 0.0
23/01:10am 8.1 6.0 6.5 90 0.7 ESE 7 9 4 5 - - 0.0
23/01:00am 8.1 5.6 6.5 90 0.7 ESE 9 9 5 5 - - 0.0
23/12:50am 8.1 6.0 6.5 90 0.7 ESE 7 9 4 5 - - 0.0
23/12:40am 8.5 6.1 6.9 90 0.8 ESE 9 9 5 5 - - 0.0
23/12:30am 8.8 6.0 7.0 88 0.8 SE 11 13 6 7 - - 0.0
23/12:20am 9.0 6.3 7.2 88 0.9 SE 11 13 6 7 - - 0.0
23/12:10am 9.0 6.2 7.0 87 0.9 SE 11 11 6 6 - - 0.0
23/12:00am 9.2 6.8 6.9 85 1.1 SE 9 11 5 6 - - 0.0
 
Date/Time
EST
Temp
°C
App
Temp
°C
Dew
Point
°C
Rel
Hum
%
Delta-T
°C
Wind Press
QNH
hPa
Press
MSL
hPa
Rain since
9am
mm
Dir  Spd
km/h
Gust
km/h
Spd
kts
Gust
kts
22/11:50pm 9.5 7.2 7.4 87 1.0 SE 9 9 5 5 - - 0.0
22/11:40pm 9.4 7.0 7.0 85 1.1 SE 9 11 5 6 - - 0.0
22/11:30pm 9.8 7.1 7.2 84 1.2 SE 11 11 6 6 - - 0.0
22/11:20pm 10.3 8.0 7.4 82 1.4 SE 9 11 5 6 - - 0.0
22/11:10pm 10.8 8.2 7.7 81 1.5 SE 11 13 6 7 - - 0.0
22/11:00pm 11.2 8.9 7.6 78 1.8 SE 9 13 5 7 - - 0.0
22/10:50pm 10.8 8.9 7.5 80 1.6 SE 7 9 4 5 - - 0.0
22/10:40pm 10.6 8.3 7.5 81 1.5 SE 9 9 5 5 - - 0.0
22/10:30pm 10.8 8.8 7.3 79 1.7 SE 7 9 4 5 - - 0.0
22/10:20pm 10.8 8.5 7.3 79 1.7 SE 9 9 5 5 - - 0.0
22/10:10pm 11.5 9.2 7.5 76 1.9 SE 9 11 5 6 - - 0.0
22/10:00pm 12.5 10.3 7.7 72 2.4 SE 9 11 5 6 - - 0.0
22/09:50pm 12.8 10.9 7.7 71 2.5 SSE 7 9 4 5 - - 0.0
22/09:40pm 13.1 11.2 7.7 70 2.7 SSE 7 7 4 4 - - 0.0
22/09:30pm 13.1 11.4 7.6 69 2.7 SSE 6 7 3 4 - - 0.0
22/09:20pm 13.2 11.6 7.8 70 2.7 SSE 6 6 3 3 - - 0.0
22/09:10pm 13.2 11.4 7.8 70 2.7 SE 7 7 4 4 - - 0.0
22/09:00pm 13.1 11.2 7.7 70 2.7 SE 7 7 4 4 - - 0.0
22/08:50pm 13.5 11.7 7.8 68 2.8 SE 7 7 4 4 - - 0.0
22/08:40pm 14.0 12.2 7.8 66 3.1 SE 7 7 4 4 - - 0.0
22/08:30pm 13.7 11.8 7.4 65 3.1 SSE 7 7 4 4 - - 0.0
22/08:20pm 13.6 11.6 7.2 65 3.1 SSE 7 9 4 5 - - 0.0
22/08:10pm 13.0 10.6 7.2 68 2.8 SSE 9 9 5 5 - - 0.0
22/08:00pm 13.1 11.1 7.0 66 3.0 SSE 7 9 4 5 - - 0.0
22/07:50pm 12.6 10.6 7.2 69 2.6 SSE 7 7 4 4 - - 0.0
22/07:40pm 12.6 10.3 7.4 70 2.5 SSE 9 11 5 6 - - 0.0
22/07:30pm 13.1 10.8 7.4 68 2.8 S 9 11 5 6 - - 0.0
22/07:20pm 13.4 10.7 7.3 66 3.0 SSE 11 11 6 6 - - 0.0
22/07:10pm 13.5 10.8 7.2 65 3.1 S 11 11 6 6 - - 0.0
22/07:00pm 14.2 11.5 7.2 63 3.5 SSE 11 13 6 7 - - 0.0
22/06:50pm 14.7 11.9 6.9 59 3.8 SSE 11 13 6 7 - - 0.0
22/06:40pm 14.8 11.6 6.9 59 3.9 SSE 13 13 7 7 - - 0.0
22/06:30pm 15.3 12.5 6.9 57 4.1 SSE 11 13 6 7 - - 0.0
22/06:20pm 15.2 12.3 6.6 56 4.2 SSE 11 11 6 6 - - 0.0
22/06:10pm 15.3 12.8 6.6 56 4.3 SSE 9 11 5 6 - - 0.0
22/06:00pm 15.7 13.2 6.6 54 4.5 SSE 9 9 5 5 - - 0.0
22/05:50pm 16.1 14.0 6.8 54 4.6 SSE 7 9 4 5 - - 0.0
22/05:40pm 16.5 14.5 6.9 53 4.8 SSE 7 7 4 4 - - 0.0
22/05:30pm 16.6 14.6 6.9 52 4.8 SSE 7 7 4 4 - - 0.0
22/05:20pm 16.9 14.9 7.0 52 5.0 SSE 7 7 4 4 - - 0.0
22/05:10pm 17.1 15.1 7.2 52 5.0 S 7 7 4 4 - - 0.0
22/05:00pm 18.0 16.1 7.4 50 5.4 S 7 7 4 4 - - 0.0
22/04:50pm 18.7 16.8 7.4 47 5.8 S 7 7 4 4 - - 0.0
22/04:40pm 19.1 17.0 6.8 44 6.2 SSE 7 9 4 5 - - 0.0
22/04:30pm 19.3 17.0 7.3 45 6.1 S 9 11 5 6 - - 0.0
22/04:20pm 19.6 17.1 6.5 42 6.6 SSE 9 13 5 7 - - 0.0
22/04:10pm 19.8 17.3 6.4 41 6.8 SSW 9 13 5 7 - - 0.0
22/04:00pm 19.9 16.6 6.6 42 6.7 S 13 13 7 7 - - 0.0
22/03:50pm 20.0 16.8 6.9 42 6.7 SSW 13 17 7 9 - - 0.0
22/03:40pm 20.2 16.9 6.4 40 7.0 SSE 13 15 7 8 - - 0.0
22/03:30pm 20.2 17.7 6.6 41 6.9 SSE 9 13 5 7 - - 0.0
22/03:10pm 20.4 17.3 5.5 37 7.4 S 11 15 6 8 - - 0.0
22/03:00pm 20.5 17.9 6.3 39 7.2 S 9 13 5 7 - - 0.0
22/02:50pm 20.6 17.6 5.9 38 7.4 S 11 15 6 8 - - 0.0
22/02:40pm 20.5 17.7 6.9 41 7.0 SSE 11 15 6 8 - - 0.0
22/02:30pm 20.5 17.6 6.7 40 7.0 S 11 17 6 9 - - 0.0
22/02:20pm 20.2 17.0 6.8 41 6.8 S 13 17 7 9 - - 0.0
22/02:10pm 20.3 17.5 6.8 41 6.9 S 11 15 6 8 - - 0.0
22/02:00pm 20.4 17.1 6.3 40 7.1 S 13 17 7 9 - - 0.0
22/01:50pm 20.1 16.9 6.8 42 6.8 S 13 15 7 8 - - 0.0
22/01:40pm 20.3 17.2 7.1 42 6.8 SSW 13 15 7 8 - - 0.0

Other formats

Comma delimited format used in spreadsheet applications
http://www.bom.gov.au/fwo/IDN60801/IDN60801.99791.axf

JavaScript Object Notation format (JSON) in row-major order
http://www.bom.gov.au/fwo/IDN60801/IDN60801.99791.json

Data quality

Most of these data are generated automatically and are frequently updated. Quality checks on data are not normally performed. It is possible for incorrect values to appear. Refer to information at About Latest Weather Observations and please check the disclaimer before using these data.